Terminal Aerodrome Forecast
Issued by NWS Sterling, VA

Current Version | Previous Version | Text Only | Print | Product List | Glossary Off
Versions: 1 2 3 4 5 6 7 8 9 10 11 12 13 14 15 16 17

000
FTUS41 KLWX 011733
TAFMRB
TAF
KMRB 011733Z 0118/0218 17007KT 3SM -FZRA BR SCT008 OVC020
     FM011900 17006KT 5SM -FZRA BKN008 OVC020
     FM012200 VRB03KT 3SM BR BKN003 OVC050
     FM021200 32008KT P6SM SCT003 BKN050
     FM021400 32012G22KT P6SM SCT050=

USA.gov is the U.S. government's official web portal to all federal, state and local government web resources and services.